To NAV CANADA Home Page Login to a new session Search on AWWS site Feedback and Comments Disclaimer Vers la page française équivalente Tips FAQ What's new on the site To the Forecasts and Observations / NOTAM section To "File a Flight Plan" website Publications and other links Update of the User's profile FIC Telephone Numbers My Weather Data Folder Route Weather Data Regional Weather Data Local Weather Data To the Forecasts and Observations / NOTAM section
Request Generated 03/05/2015 at 11:53:46 UTC . Weather information available at that time is displayed.

METAR/TAF

MONTREAL/PIERRE-ELLIOTT-TRUDEAU INTL/QC    

METAR CYUL 051100Z 30009KT 15SM FEW055 BKN180 M12/M21 A3011 RMK
SC2AC4 PRESFR SLP198=
METAR CYUL 051000Z 30011G18KT 15SM FEW240 M11/M20 A3007 RMK CI2
SLP186=
METAR CYUL 050900Z 32009G17KT 15SM FEW045 BKN240 M09/M18 A3003 RMK
SC2CI5 PRESRR SLP171=

TAF CYUL 051138Z 0512/0612 31010G20KT P6SM FEW050 SCT200
BECMG 0516/0518 25010KT SCT030
FM052200 25008KT P6SM SKC
RMK NXT FCST BY 051500Z=
Your time UTC time
Weather data provided by Environment Canada and NAV CANADA